sensor_id;sensor_type;location;lat;lon;timestamp;pressure;altitude;pressure_sealevel;temperature;humidity
9889;BME280;4983;42.112;24.738;2024-03-08T00:01:30;99925.22;;;7.28;80.56
9889;BME280;4983;42.112;24.738;2024-03-08T00:03:56;99928.91;;;7.35;80.51
9889;BME280;4983;42.112;24.738;2024-03-08T00:06:22;99930.59;;;7.36;79.84
9889;BME280;4983;42.112;24.738;2024-03-08T00:08:47;99926.69;;;7.40;80.40
9889;BME280;4983;42.112;24.738;2024-03-08T00:11:13;99922.00;;;7.34;80.34
9889;BME280;4983;42.112;24.738;2024-03-08T00:13:38;99920.38;;;7.33;80.46
9889;BME280;4983;42.112;24.738;2024-03-08T00:16:04;99925.22;;;7.28;79.65
9889;BME280;4983;42.112;24.738;2024-03-08T00:18:29;99912.53;;;7.23;81.11
9889;BME280;4983;42.112;24.738;2024-03-08T00:20:55;99917.63;;;7.25;80.38
9889;BME280;4983;42.112;24.738;2024-03-08T00:23:21;99911.94;;;7.29;80.73
9889;BME280;4983;42.112;24.738;2024-03-08T00:25:46;99916.75;;;7.34;81.09
9889;BME280;4983;42.112;24.738;2024-03-08T00:28:12;99912.84;;;7.38;80.75
9889;BME280;4983;42.112;24.738;2024-03-08T00:30:40;99899.34;;;7.33;80.48
9889;BME280;4983;42.112;24.738;2024-03-08T00:33:05;99908.72;;;7.35;80.30
9889;BME280;4983;42.112;24.738;2024-03-08T00:35:31;99920.75;;;7.38;80.47
9889;BME280;4983;42.112;24.738;2024-03-08T00:37:56;99914.50;;;7.39;80.25
9889;BME280;4983;42.112;24.738;2024-03-08T00:40:22;99919.47;;;7.42;80.83
9889;BME280;4983;42.112;24.738;2024-03-08T00:42:48;99918.13;;;7.38;79.24
9889;BME280;4983;42.112;24.738;2024-03-08T00:45:13;99920.44;;;7.41;79.81
9889;BME280;4983;42.112;24.738;2024-03-08T00:47:39;99920.00;;;7.45;80.50
9889;BME280;4983;42.112;24.738;2024-03-08T00:50:04;99919.88;;;7.47;80.66
9889;BME280;4983;42.112;24.738;2024-03-08T00:52:30;99910.72;;;7.51;80.72
9889;BME280;4983;42.112;24.738;2024-03-08T00:54:56;99908.91;;;7.51;79.66
9889;BME280;4983;42.112;24.738;2024-03-08T00:57:21;99912.06;;;7.55;80.08
9889;BME280;4983;42.112;24.738;2024-03-08T00:59:47;99911.38;;;7.53;80.66
9889;BME280;4983;42.112;24.738;2024-03-08T01:02:13;99903.63;;;7.51;80.34
9889;BME280;4983;42.112;24.738;2024-03-08T01:04:39;99897.50;;;7.43;80.45
9889;BME280;4983;42.112;24.738;2024-03-08T01:07:04;99897.09;;;7.38;80.19
9889;BME280;4983;42.112;24.738;2024-03-08T01:09:30;99901.97;;;7.33;80.43
9889;BME280;4983;42.112;24.738;2024-03-08T01:11:56;99904.06;;;7.29;82.03
9889;BME280;4983;42.112;24.738;2024-03-08T01:14:23;99904.66;;;7.23;81.30
9889;BME280;4983;42.112;24.738;2024-03-08T01:16:49;99905.19;;;7.27;81.20
9889;BME280;4983;42.112;24.738;2024-03-08T01:19:15;99901.88;;;7.25;81.71
9889;BME280;4983;42.112;24.738;2024-03-08T01:21:41;99894.97;;;7.24;82.74
9889;BME280;4983;42.112;24.738;2024-03-08T01:24:07;99905.00;;;7.11;82.47
9889;BME280;4983;42.112;24.738;2024-03-08T01:26:32;99903.34;;;7.10;82.67
9889;BME280;4983;42.112;24.738;2024-03-08T01:28:59;99911.06;;;7.11;82.18
9889;BME280;4983;42.112;24.738;2024-03-08T01:31:25;99908.34;;;7.03;83.69
9889;BME280;4983;42.112;24.738;2024-03-08T01:33:50;99908.44;;;7.11;82.58
9889;BME280;4983;42.112;24.738;2024-03-08T01:36:16;99911.13;;;7.02;82.73
9889;BME280;4983;42.112;24.738;2024-03-08T01:38:44;99910.88;;;6.95;83.82
9889;BME280;4983;42.112;24.738;2024-03-08T01:41:10;99911.56;;;6.88;83.97
9889;BME280;4983;42.112;24.738;2024-03-08T01:43:35;99916.16;;;6.86;83.52
9889;BME280;4983;42.112;24.738;2024-03-08T01:46:01;99907.31;;;6.87;82.95
9889;BME280;4983;42.112;24.738;2024-03-08T01:48:30;99912.97;;;6.82;84.12
9889;BME280;4983;42.112;24.738;2024-03-08T01:50:57;99914.38;;;6.77;83.99
9889;BME280;4983;42.112;24.738;2024-03-08T01:53:24;99912.47;;;6.79;83.05
9889;BME280;4983;42.112;24.738;2024-03-08T01:55:52;99911.75;;;6.77;83.01
9889;BME280;4983;42.112;24.738;2024-03-08T01:58:19;99909.84;;;6.79;82.95
9889;BME280;4983;42.112;24.738;2024-03-08T02:00:48;99903.50;;;6.72;82.95
9889;BME280;4983;42.112;24.738;2024-03-08T02:03:17;99909.84;;;6.69;84.38
9889;BME280;4983;42.112;24.738;2024-03-08T02:05:43;99907.53;;;6.66;84.26
9889;BME280;4983;42.112;24.738;2024-03-08T02:08:11;99909.44;;;6.64;83.97
9889;BME280;4983;42.112;24.738;2024-03-08T02:10:46;99906.69;;;6.66;83.20
9889;BME280;4983;42.112;24.738;2024-03-08T02:13:11;99913.19;;;6.62;84.61
9889;BME280;4983;42.112;24.738;2024-03-08T02:15:54;99906.28;;;6.61;84.28
9889;BME280;4983;42.112;24.738;2024-03-08T02:18:20;99903.97;;;6.58;84.57
9889;BME280;4983;42.112;24.738;2024-03-08T02:20:56;99902.13;;;6.58;84.89
9889;BME280;4983;42.112;24.738;2024-03-08T02:23:22;99910.84;;;6.59;83.90
9889;BME280;4983;42.112;24.738;2024-03-08T02:25:48;99906.44;;;6.59;84.44
9889;BME280;4983;42.112;24.738;2024-03-08T02:28:13;99914.84;;;6.63;84.13
9889;BME280;4983;42.112;24.738;2024-03-08T02:30:39;99907.94;;;6.62;84.66
9889;BME280;4983;42.112;24.738;2024-03-08T02:33:06;99911.78;;;6.67;85.51
9889;BME280;4983;42.112;24.738;2024-03-08T02:35:32;99908.88;;;6.70;83.82
9889;BME280;4983;42.112;24.738;2024-03-08T02:37:59;99918.94;;;6.75;84.07
9889;BME280;4983;42.112;24.738;2024-03-08T02:40:24;99915.38;;;6.76;83.36
9889;BME280;4983;42.112;24.738;2024-03-08T02:42:49;99905.44;;;6.70;83.28
9889;BME280;4983;42.112;24.738;2024-03-08T02:45:15;99918.69;;;6.68;82.17
9889;BME280;4983;42.112;24.738;2024-03-08T02:47:40;99917.31;;;6.64;82.21
9889;BME280;4983;42.112;24.738;2024-03-08T02:50:06;99919.81;;;6.66;83.40
9889;BME280;4983;42.112;24.738;2024-03-08T02:52:35;99931.41;;;6.63;81.85
9889;BME280;4983;42.112;24.738;2024-03-08T02:55:01;99913.84;;;6.64;82.52
9889;BME280;4983;42.112;24.738;2024-03-08T02:57:27;99916.75;;;6.61;82.90
9889;BME280;4983;42.112;24.738;2024-03-08T02:59:55;99916.75;;;6.61;82.00
9889;BME280;4983;42.112;24.738;2024-03-08T03:02:21;99913.47;;;6.59;82.73
9889;BME280;4983;42.112;24.738;2024-03-08T03:04:48;99915.69;;;6.63;83.74
9889;BME280;4983;42.112;24.738;2024-03-08T03:07:13;99910.56;;;6.62;82.97
9889;BME280;4983;42.112;24.738;2024-03-08T03:09:39;99907.94;;;6.62;82.54
9889;BME280;4983;42.112;24.738;2024-03-08T03:12:05;99912.50;;;6.60;83.64
9889;BME280;4983;42.112;24.738;2024-03-08T03:14:35;99918.97;;;6.65;83.81
9889;BME280;4983;42.112;24.738;2024-03-08T03:17:04;99926.97;;;6.64;82.61
9889;BME280;4983;42.112;24.738;2024-03-08T03:19:30;99915.81;;;6.62;83.26
9889;BME280;4983;42.112;24.738;2024-03-08T03:21:55;99925.59;;;6.60;83.00
9889;BME280;4983;42.112;24.738;2024-03-08T03:24:21;99929.59;;;6.64;84.09
9889;BME280;4983;42.112;24.738;2024-03-08T03:26:46;99931.13;;;6.66;83.58
9889;BME280;4983;42.112;24.738;2024-03-08T03:29:14;99925.59;;;6.69;82.66
9889;BME280;4983;42.112;24.738;2024-03-08T03:31:40;99927.13;;;6.72;82.87
9889;BME280;4983;42.112;24.738;2024-03-08T03:34:06;99928.47;;;6.76;83.21
9889;BME280;4983;42.112;24.738;2024-03-08T03:36:34;99936.06;;;6.79;84.46
9889;BME280;4983;42.112;24.738;2024-03-08T03:39:01;99928.88;;;6.81;83.76
9889;BME280;4983;42.112;24.738;2024-03-08T03:41:41;99934.69;;;6.75;83.52
9889;BME280;4983;42.112;24.738;2024-03-08T03:44:08;99927.78;;;6.74;84.45
9889;BME280;4983;42.112;24.738;2024-03-08T03:46:34;99940.50;;;6.69;85.06
9889;BME280;4983;42.112;24.738;2024-03-08T03:48:59;99930.19;;;6.58;84.90
9889;BME280;4983;42.112;24.738;2024-03-08T03:51:25;99940.25;;;6.53;85.83
9889;BME280;4983;42.112;24.738;2024-03-08T03:53:51;99941.09;;;6.53;85.79
9889;BME280;4983;42.112;24.738;2024-03-08T03:56:16;99938.88;;;6.49;86.57
9889;BME280;4983;42.112;24.738;2024-03-08T03:58:42;99942.22;;;6.41;86.57
9889;BME280;4983;42.112;24.738;2024-03-08T04:01:07;99954.91;;;6.36;85.87
9889;BME280;4983;42.112;24.738;2024-03-08T04:03:35;99958.22;;;6.28;86.61
9889;BME280;4983;42.112;24.738;2024-03-08T04:06:00;99949.41;;;6.30;86.81
9889;BME280;4983;42.112;24.738;2024-03-08T04:08:27;99948.72;;;6.28;86.85
9889;BME280;4983;42.112;24.738;2024-03-08T04:10:52;99950.53;;;6.27;86.97
9889;BME280;4983;42.112;24.738;2024-03-08T04:13:18;99950.53;;;6.27;86.13
9889;BME280;4983;42.112;24.738;2024-03-08T04:15:45;99954.09;;;6.26;86.51
9889;BME280;4983;42.112;24.738;2024-03-08T04:18:13;99954.38;;;6.23;88.18
9889;BME280;4983;42.112;24.738;2024-03-08T04:20:39;99944.19;;;6.20;87.11
9889;BME280;4983;42.112;24.738;2024-03-08T04:23:05;99942.78;;;6.16;86.56
9889;BME280;4983;42.112;24.738;2024-03-08T04:25:31;99953.28;;;6.26;86.48
9889;BME280;4983;42.112;24.738;2024-03-08T04:27:56;99947.88;;;6.17;87.34
9889;BME280;4983;42.112;24.738;2024-03-08T04:30:22;99959.91;;;6.20;86.83
9889;BME280;4983;42.112;24.738;2024-03-08T04:32:47;99945.97;;;6.10;87.24
9889;BME280;4983;42.112;24.738;2024-03-08T04:35:13;99958.81;;;6.13;87.02
9889;BME280;4983;42.112;24.738;2024-03-08T04:37:40;99955.75;;;6.08;86.30
9889;BME280;4983;42.112;24.738;2024-03-08T04:40:05;99954.94;;;6.07;86.49
9889;BME280;4983;42.112;24.738;2024-03-08T04:42:31;99957.56;;;6.07;86.95
9889;BME280;4983;42.112;24.738;2024-03-08T04:45:00;99954.50;;;6.02;86.90
9889;BME280;4983;42.112;24.738;2024-03-08T04:47:25;99962.38;;;6.02;87.10
9889;BME280;4983;42.112;24.738;2024-03-08T04:49:51;99962.25;;;6.04;86.44
9889;BME280;4983;42.112;24.738;2024-03-08T04:52:16;99968.44;;;6.03;86.49
9889;BME280;4983;42.112;24.738;2024-03-08T04:54:43;99966.22;;;5.98;87.16
9889;BME280;4983;42.112;24.738;2024-03-08T04:57:08;99953.66;;;5.92;87.77
9889;BME280;4983;42.112;24.738;2024-03-08T04:59:34;99969.25;;;6.03;85.98
9889;BME280;4983;42.112;24.738;2024-03-08T05:01:59;99971.75;;;5.95;86.58
9889;BME280;4983;42.112;24.738;2024-03-08T05:04:25;99977.25;;;5.92;86.05
9889;BME280;4983;42.112;24.738;2024-03-08T05:06:50;99987.06;;;5.90;85.75
9889;BME280;4983;42.112;24.738;2024-03-08T05:09:16;99976.59;;;5.90;86.42
9889;BME280;4983;42.112;24.738;2024-03-08T05:11:45;99987.72;;;5.92;85.93
9889;BME280;4983;42.112;24.738;2024-03-08T05:14:11;99986.34;;;5.88;85.55
9889;BME280;4983;42.112;24.738;2024-03-08T05:16:42;99990.91;;;5.86;86.21
9889;BME280;4983;42.112;24.738;2024-03-08T05:19:08;99994.78;;;5.82;86.25
9889;BME280;4983;42.112;24.738;2024-03-08T05:21:33;99997.41;;;5.82;86.80
9889;BME280;4983;42.112;24.738;2024-03-08T05:23:59;100003.56;;;5.81;86.66
9889;BME280;4983;42.112;24.738;2024-03-08T05:26:24;100007.88;;;5.82;86.82
9889;BME280;4983;42.112;24.738;2024-03-08T05:28:50;100006.25;;;6.00;88.97
9889;BME280;4983;42.112;24.738;2024-03-08T05:31:22;100002.53;;;6.22;88.09
9889;BME280;4983;42.112;24.738;2024-03-08T05:33:48;100011.50;;;6.39;85.37
9889;BME280;4983;42.112;24.738;2024-03-08T05:36:14;100010.53;;;6.59;84.76
9889;BME280;4983;42.112;24.738;2024-03-08T05:38:42;100015.63;;;6.60;84.61
9889;BME280;4983;42.112;24.738;2024-03-08T05:41:09;100022.00;;;6.58;84.08
9889;BME280;4983;42.112;24.738;2024-03-08T05:43:34;100020.75;;;6.43;82.98
9889;BME280;4983;42.112;24.738;2024-03-08T05:46:00;100027.38;;;6.37;83.96
9889;BME280;4983;42.112;24.738;2024-03-08T05:48:26;100028.75;;;6.32;84.44
9889;BME280;4983;42.112;24.738;2024-03-08T05:50:51;100030.97;;;6.27;84.00
9889;BME280;4983;42.112;24.738;2024-03-08T05:53:16;100031.09;;;6.25;84.65
9889;BME280;4983;42.112;24.738;2024-03-08T05:55:42;100033.72;;;6.15;84.24
9889;BME280;4983;42.112;24.738;2024-03-08T05:58:07;100034.13;;;6.11;85.53
9889;BME280;4983;42.112;24.738;2024-03-08T06:00:34;100029.13;;;6.08;84.69
9889;BME280;4983;42.112;24.738;2024-03-08T06:03:01;100035.22;;;6.08;85.19
9889;BME280;4983;42.112;24.738;2024-03-08T06:05:27;100042.13;;;6.09;84.70
9889;BME280;4983;42.112;24.738;2024-03-08T06:07:53;100054.09;;;6.12;84.98
9889;BME280;4983;42.112;24.738;2024-03-08T06:10:19;100046.25;;;6.12;85.10
9889;BME280;4983;42.112;24.738;2024-03-08T06:12:44;100054.56;;;6.17;85.32
9889;BME280;4983;42.112;24.738;2024-03-08T06:15:10;100048.91;;;6.22;86.04
9889;BME280;4983;42.112;24.738;2024-03-08T06:17:40;100062.03;;;6.31;86.06
9889;BME280;4983;42.112;24.738;2024-03-08T06:20:06;100052.59;;;6.28;84.49
9889;BME280;4983;42.112;24.738;2024-03-08T06:22:37;100059.25;;;6.33;84.55
9889;BME280;4983;42.112;24.738;2024-03-08T06:25:07;100056.22;;;6.28;85.43
9889;BME280;4983;42.112;24.738;2024-03-08T06:27:32;100060.34;;;6.30;85.76
9889;BME280;4983;42.112;24.738;2024-03-08T06:29:59;100061.59;;;6.36;84.62
9889;BME280;4983;42.112;24.738;2024-03-08T06:32:25;100061.44;;;6.37;84.50
9889;BME280;4983;42.112;24.738;2024-03-08T06:34:50;100058.97;;;6.36;84.64
9889;BME280;4983;42.112;24.738;2024-03-08T06:37:16;100066.28;;;6.42;84.76
9889;BME280;4983;42.112;24.738;2024-03-08T06:39:48;100065.19;;;6.44;85.49
9889;BME280;4983;42.112;24.738;2024-03-08T06:42:13;100071.13;;;6.46;85.12
9889;BME280;4983;42.112;24.738;2024-03-08T06:44:39;100066.72;;;6.47;84.76
9889;BME280;4983;42.112;24.738;2024-03-08T06:47:14;100060.50;;;6.48;84.66
9889;BME280;4983;42.112;24.738;2024-03-08T06:49:40;100069.50;;;6.45;83.62
9889;BME280;4983;42.112;24.738;2024-03-08T06:52:06;100062.28;;;6.38;84.02
9889;BME280;4983;42.112;24.738;2024-03-08T06:54:34;100076.66;;;6.34;83.61
9889;BME280;4983;42.112;24.738;2024-03-08T06:57:02;100079.41;;;6.32;85.29
9889;BME280;4983;42.112;24.738;2024-03-08T06:59:28;100074.56;;;6.28;85.73
9889;BME280;4983;42.112;24.738;2024-03-08T07:01:54;100087.13;;;6.34;85.44
9889;BME280;4983;42.112;24.738;2024-03-08T07:04:19;100080.91;;;6.35;85.82
9889;BME280;4983;42.112;24.738;2024-03-08T07:06:49;100088.50;;;6.38;86.19
9889;BME280;4983;42.112;24.738;2024-03-08T07:09:15;100090.75;;;6.42;84.94
9889;BME280;4983;42.112;24.738;2024-03-08T07:11:44;100078.28;;;6.35;84.15
9889;BME280;4983;42.112;24.738;2024-03-08T07:14:09;100070.28;;;6.36;83.36
9889;BME280;4983;42.112;24.738;2024-03-08T07:16:35;100085.75;;;6.39;83.94
9889;BME280;4983;42.112;24.738;2024-03-08T07:19:07;100083.41;;;6.46;85.09
9889;BME280;4983;42.112;24.738;2024-03-08T07:21:32;100082.88;;;6.42;84.17
9889;BME280;4983;42.112;24.738;2024-03-08T07:23:57;100081.06;;;6.43;83.85
9889;BME280;4983;42.112;24.738;2024-03-08T07:26:35;100083.97;;;6.49;85.02
9889;BME280;4983;42.112;24.738;2024-03-08T07:29:00;100090.03;;;6.50;83.20
9889;BME280;4983;42.112;24.738;2024-03-08T07:31:26;100097.38;;;6.46;83.03
9889;BME280;4983;42.112;24.738;2024-03-08T07:33:51;100098.59;;;6.42;84.33
9889;BME280;4983;42.112;24.738;2024-03-08T07:36:19;100093.22;;;6.44;83.64
9889;BME280;4983;42.112;24.738;2024-03-08T07:38:44;100092.13;;;6.37;84.25
9889;BME280;4983;42.112;24.738;2024-03-08T07:41:12;100102.34;;;6.40;82.99
9889;BME280;4983;42.112;24.738;2024-03-08T07:43:38;100088.25;;;6.41;84.04
9889;BME280;4983;42.112;24.738;2024-03-08T07:46:04;100105.09;;;6.48;83.36
9889;BME280;4983;42.112;24.738;2024-03-08T07:48:29;100099.72;;;6.49;83.14
9889;BME280;4983;42.112;24.738;2024-03-08T07:50:56;100098.59;;;6.52;83.97
9889;BME280;4983;42.112;24.738;2024-03-08T07:53:22;100096.25;;;6.49;83.69
9889;BME280;4983;42.112;24.738;2024-03-08T07:55:49;100103.16;;;6.50;82.36
9889;BME280;4983;42.112;24.738;2024-03-08T07:58:15;100100.66;;;6.48;83.25
9889;BME280;4983;42.112;24.738;2024-03-08T08:00:40;100099.31;;;6.54;83.94
9889;BME280;4983;42.112;24.738;2024-03-08T08:03:08;100103.00;;;6.61;83.48
9889;BME280;4983;42.112;24.738;2024-03-08T08:05:34;100100.56;;;6.59;82.29
9889;BME280;4983;42.112;24.738;2024-03-08T08:08:01;100113.66;;;6.69;83.82
9889;BME280;4983;42.112;24.738;2024-03-08T08:10:29;100111.03;;;6.69;81.69
9889;BME280;4983;42.112;24.738;2024-03-08T08:12:55;100108.81;;;6.74;81.74
9889;BME280;4983;42.112;24.738;2024-03-08T08:15:22;100111.59;;;6.82;82.66
9889;BME280;4983;42.112;24.738;2024-03-08T08:17:48;100112.69;;;6.79;81.37
9889;BME280;4983;42.112;24.738;2024-03-08T08:20:13;100115.63;;;6.86;81.84
9889;BME280;4983;42.112;24.738;2024-03-08T08:22:42;100108.97;;;6.82;82.48
9889;BME280;4983;42.112;24.738;2024-03-08T08:25:09;100117.78;;;7.00;81.75
9889;BME280;4983;42.112;24.738;2024-03-08T08:27:38;100116.84;;;7.01;80.94
9889;BME280;4983;42.112;24.738;2024-03-08T08:30:05;100121.25;;;7.00;81.23
9889;BME280;4983;42.112;24.738;2024-03-08T08:32:34;100119.16;;;6.94;79.89
9889;BME280;4983;42.112;24.738;2024-03-08T08:35:00;100104.81;;;6.89;81.46
9889;BME280;4983;42.112;24.738;2024-03-08T08:37:26;100124.72;;;7.01;80.52
9889;BME280;4983;42.112;24.738;2024-03-08T08:39:51;100116.81;;;7.10;81.66
9889;BME280;4983;42.112;24.738;2024-03-08T08:42:17;100118.06;;;7.16;79.67
9889;BME280;4983;42.112;24.738;2024-03-08T08:44:43;100118.16;;;7.24;80.61
9889;BME280;4983;42.112;24.738;2024-03-08T08:47:08;100112.50;;;7.28;80.59
9889;BME280;4983;42.112;24.738;2024-03-08T08:49:34;100110.97;;;7.35;79.06
9889;BME280;4983;42.112;24.738;2024-03-08T08:52:00;100112.19;;;7.41;79.27
9889;BME280;4983;42.112;24.738;2024-03-08T08:54:26;100108.75;;;7.31;77.86
9889;BME280;4983;42.112;24.738;2024-03-08T08:56:52;100112.19;;;7.41;79.00
9889;BME280;4983;42.112;24.738;2024-03-08T08:59:18;100121.31;;;7.46;77.83
9889;BME280;4983;42.112;24.738;2024-03-08T09:01:47;100117.41;;;7.50;78.21
9889;BME280;4983;42.112;24.738;2024-03-08T09:04:12;100117.38;;;7.60;79.11
9889;BME280;4983;42.112;24.738;2024-03-08T09:06:39;100119.72;;;7.63;77.81
9889;BME280;4983;42.112;24.738;2024-03-08T09:09:06;100113.81;;;7.61;78.18
9889;BME280;4983;42.112;24.738;2024-03-08T09:11:34;100114.34;;;7.64;77.32
9889;BME280;4983;42.112;24.738;2024-03-08T09:14:00;100114.28;;;7.74;77.64
9889;BME280;4983;42.112;24.738;2024-03-08T09:16:27;100112.50;;;7.74;77.10
9889;BME280;4983;42.112;24.738;2024-03-08T09:18:52;100118.59;;;7.75;76.25
9889;BME280;4983;42.112;24.738;2024-03-08T09:21:18;100113.47;;;7.73;77.01
9889;BME280;4983;42.112;24.738;2024-03-08T09:23:43;100119.25;;;7.77;76.31
9889;BME280;4983;42.112;24.738;2024-03-08T09:26:10;100117.19;;;7.71;76.27
9889;BME280;4983;42.112;24.738;2024-03-08T09:28:38;100117.63;;;7.76;77.33
9889;BME280;4983;42.112;24.738;2024-03-08T09:31:04;100109.84;;;7.84;76.90
9889;BME280;4983;42.112;24.738;2024-03-08T09:33:30;100121.00;;;7.95;75.25
9889;BME280;4983;42.112;24.738;2024-03-08T09:35:56;100116.94;;;8.01;76.24
9889;BME280;4983;42.112;24.738;2024-03-08T09:38:24;100118.03;;;8.08;76.05
9889;BME280;4983;42.112;24.738;2024-03-08T09:40:51;100121.63;;;8.07;75.21
9889;BME280;4983;42.112;24.738;2024-03-08T09:43:17;100112.56;;;8.19;76.15
9889;BME280;4983;42.112;24.738;2024-03-08T09:45:45;100126.66;;;8.27;75.63
9889;BME280;4983;42.112;24.738;2024-03-08T09:48:15;100119.91;;;8.25;74.45
9889;BME280;4983;42.112;24.738;2024-03-08T09:50:44;100123.13;;;8.36;74.71
9889;BME280;4983;42.112;24.738;2024-03-08T09:53:11;100123.38;;;8.43;75.13
9889;BME280;4983;42.112;24.738;2024-03-08T09:55:37;100120.28;;;8.47;74.11
9889;BME280;4983;42.112;24.738;2024-03-08T09:58:06;100109.25;;;8.44;73.96
9889;BME280;4983;42.112;24.738;2024-03-08T10:00:56;100114.28;;;8.55;74.46
9889;BME280;4983;42.112;24.738;2024-03-08T10:03:27;100115.00;;;8.57;74.12
9889;BME280;4983;42.112;24.738;2024-03-08T10:05:53;100111.28;;;8.50;73.52
9889;BME280;4983;42.112;24.738;2024-03-08T10:08:21;100114.28;;;8.55;72.95
9889;BME280;4983;42.112;24.738;2024-03-08T10:10:47;100114.59;;;8.52;73.45
9889;BME280;4983;42.112;24.738;2024-03-08T10:13:15;100103.69;;;8.47;72.44
9889;BME280;4983;42.112;24.738;2024-03-08T10:15:42;100100.38;;;8.45;73.29
9889;BME280;4983;42.112;24.738;2024-03-08T10:18:07;100103.06;;;8.53;71.72
9889;BME280;4983;42.112;24.738;2024-03-08T10:20:33;100108.44;;;8.61;71.84
9889;BME280;4983;42.112;24.738;2024-03-08T10:23:00;100112.13;;;8.68;72.42
9889;BME280;4983;42.112;24.738;2024-03-08T10:25:26;100105.19;;;8.67;71.97
9889;BME280;4983;42.112;24.738;2024-03-08T10:27:51;100111.00;;;8.70;72.05
9889;BME280;4983;42.112;24.738;2024-03-08T10:30:17;100105.50;;;8.64;71.52
9889;BME280;4983;42.112;24.738;2024-03-08T10:32:47;100109.25;;;8.61;71.70
9889;BME280;4983;42.112;24.738;2024-03-08T10:35:13;100099.63;;;8.70;71.17
9889;BME280;4983;42.112;24.738;2024-03-08T10:40:09;100104.09;;;8.69;71.62
9889;BME280;4983;42.112;24.738;2024-03-08T10:42:52;100090.84;;;8.79;72.85
9889;BME280;4983;42.112;24.738;2024-03-08T10:48:08;100093.28;;;8.98;71.45
9889;BME280;4983;42.112;24.738;2024-03-08T10:50:36;100084.63;;;9.05;69.41
9889;BME280;4983;42.112;24.738;2024-03-08T10:53:05;100096.06;;;9.14;69.71
9889;BME280;4983;42.112;24.738;2024-03-08T10:55:33;100091.75;;;9.13;69.56
9889;BME280;4983;42.112;24.738;2024-03-08T10:57:59;100085.38;;;9.15;70.96
9889;BME280;4983;42.112;24.738;2024-03-08T11:00:25;100089.81;;;9.15;70.18
9889;BME280;4983;42.112;24.738;2024-03-08T11:02:54;100087.22;;;9.23;70.01
9889;BME280;4983;42.112;24.738;2024-03-08T11:05:39;100084.13;;;9.27;69.16
9889;BME280;4983;42.112;24.738;2024-03-08T11:08:17;100075.13;;;9.38;69.45
9889;BME280;4983;42.112;24.738;2024-03-08T11:10:53;100067.75;;;9.42;69.33
9889;BME280;4983;42.112;24.738;2024-03-08T11:13:37;100079.44;;;9.39;68.27
9889;BME280;4983;42.112;24.738;2024-03-08T11:18:55;100083.19;;;9.62;68.71
9889;BME280;4983;42.112;24.738;2024-03-08T11:21:25;100075.63;;;9.67;67.43
9889;BME280;4983;42.112;24.738;2024-03-08T11:24:02;100068.69;;;9.66;69.27
9889;BME280;4983;42.112;24.738;2024-03-08T11:26:31;100074.81;;;9.67;69.00
9889;BME280;4983;42.112;24.738;2024-03-08T11:32:16;100075.72;;;9.91;66.99
9889;BME280;4983;42.112;24.738;2024-03-08T11:34:45;100071.16;;;9.68;67.03
9889;BME280;4983;42.112;24.738;2024-03-08T11:37:15;100069.50;;;9.59;67.78
9889;BME280;4983;42.112;24.738;2024-03-08T11:39:51;100058.72;;;9.52;68.34
9889;BME280;4983;42.112;24.738;2024-03-08T11:42:18;100057.56;;;9.80;69.34
9889;BME280;4983;42.112;24.738;2024-03-08T11:44:45;100058.34;;;10.06;65.88
9889;BME280;4983;42.112;24.738;2024-03-08T11:47:11;100056.91;;;10.20;66.41
9889;BME280;4983;42.112;24.738;2024-03-08T11:49:38;100057.09;;;10.34;63.83
9889;BME280;4983;42.112;24.738;2024-03-08T11:52:04;100057.44;;;10.55;64.24
9889;BME280;4983;42.112;24.738;2024-03-08T11:54:30;100058.13;;;10.65;65.63
9889;BME280;4983;42.112;24.738;2024-03-08T11:56:59;100052.34;;;10.78;64.86
9889;BME280;4983;42.112;24.738;2024-03-08T11:59:28;100048.69;;;11.19;63.53
9889;BME280;4983;42.112;24.738;2024-03-08T12:02:03;100049.44;;;11.59;61.97
9889;BME280;4983;42.112;24.738;2024-03-08T12:04:30;100045.81;;;11.99;60.18
9889;BME280;4983;42.112;24.738;2024-03-08T12:06:57;100044.91;;;12.14;58.71
9889;BME280;4983;42.112;24.738;2024-03-08T12:09:26;100036.16;;;12.37;59.71
9889;BME280;4983;42.112;24.738;2024-03-08T12:11:52;100042.81;;;12.55;58.52
9889;BME280;4983;42.112;24.738;2024-03-08T12:14:18;100042.22;;;12.90;58.04
9889;BME280;4983;42.112;24.738;2024-03-08T12:16:43;100044.88;;;13.42;57.61
9889;BME280;4983;42.112;24.738;2024-03-08T12:19:10;100035.47;;;13.54;52.96
9889;BME280;4983;42.112;24.738;2024-03-08T12:21:36;100035.09;;;13.71;54.34
9889;BME280;4983;42.112;24.738;2024-03-08T12:24:09;100039.28;;;13.95;53.20
9889;BME280;4983;42.112;24.738;2024-03-08T12:26:38;100037.00;;;13.92;53.89
9889;BME280;4983;42.112;24.738;2024-03-08T12:29:21;100025.75;;;13.32;52.20
9889;BME280;4983;42.112;24.738;2024-03-08T12:31:54;100036.06;;;12.90;54.56
9889;BME280;4983;42.112;24.738;2024-03-08T12:34:20;100027.28;;;12.75;55.57
9889;BME280;4983;42.112;24.738;2024-03-08T12:36:47;100029.69;;;12.62;54.25
9889;BME280;4983;42.112;24.738;2024-03-08T12:39:15;100026.84;;;12.63;55.07
9889;BME280;4983;42.112;24.738;2024-03-08T12:41:41;100030.22;;;12.35;56.87
9889;BME280;4983;42.112;24.738;2024-03-08T12:44:07;100019.47;;;12.05;56.80
9889;BME280;4983;42.112;24.738;2024-03-08T12:46:37;100022.88;;;11.91;59.12
9889;BME280;4983;42.112;24.738;2024-03-08T12:49:08;100016.38;;;11.63;59.00
9889;BME280;4983;42.112;24.738;2024-03-08T12:51:38;100010.09;;;11.48;60.52
9889;BME280;4983;42.112;24.738;2024-03-08T12:54:05;100015.56;;;11.55;60.51
9889;BME280;4983;42.112;24.738;2024-03-08T12:56:33;100019.06;;;11.39;58.91
9889;BME280;4983;42.112;24.738;2024-03-08T12:59:00;100020.06;;;11.38;60.48
9889;BME280;4983;42.112;24.738;2024-03-08T13:01:26;100009.66;;;11.29;61.12
9889;BME280;4983;42.112;24.738;2024-03-08T13:03:53;100024.03;;;11.26;61.50
9889;BME280;4983;42.112;24.738;2024-03-08T13:06:22;100014.34;;;11.11;60.53
9889;BME280;4983;42.112;24.738;2024-03-08T13:08:52;100021.13;;;11.05;61.27
9889;BME280;4983;42.112;24.738;2024-03-08T13:11:19;100013.53;;;10.94;61.35
9889;BME280;4983;42.112;24.738;2024-03-08T13:13:45;100014.03;;;10.98;61.85
9889;BME280;4983;42.112;24.738;2024-03-08T13:16:10;100016.16;;;11.10;60.69
9889;BME280;4983;42.112;24.738;2024-03-08T13:18:40;100013.13;;;11.37;60.49
9889;BME280;4983;42.112;24.738;2024-03-08T13:21:07;100011.59;;;11.43;58.88
9889;BME280;4983;42.112;24.738;2024-03-08T13:23:35;100013.06;;;11.61;59.79
9889;BME280;4983;42.112;24.738;2024-03-08T13:26:08;99994.63;;;11.84;60.82